Archer, Wyoming
Current Conditions -  °F | °C
As of 1:53 PM on Saturday 22 Nov 2014 (Local Time) from KCYS Reporting Station
Clear Clear  
Wind Chill: 54°   Ceiling: Unl
Heat Index: 54°   Visibility: 10mi
Dew Point: 17°   Wind: 25mph
Humidity: 23%   Direction: 270°W
Pressure: 29.61"   Gusts: 35mph
Location:  41.4091°N, 104.861°W
Report Text: KCYS 222053Z 27022G30KT 10SM CLR 12/M08 A2961 RMK AO2 PK WND 27030/2051 SLP004 T01221083 56015
Loading
Personal Weather Stations






























Interactive Weather Map New forecast layout! Learn more

10-Day Weather Forecast

Advertisements
Track Severe Weather on mobile